createdAt,value
2022-12-25T00:00:47.100Z,502.00
2022-12-25T00:01:47.079Z,506.00
2022-12-25T00:02:47.133Z,504.00
2022-12-25T00:03:47.132Z,507.00
2022-12-25T00:04:47.029Z,508.00
2022-12-25T00:05:47.017Z,507.00
2022-12-25T00:06:47.000Z,507.00
2022-12-25T00:07:46.989Z,510.00
2022-12-25T00:08:47.000Z,508.00
2022-12-25T00:09:46.973Z,506.00
2022-12-25T00:10:46.949Z,504.00
2022-12-25T00:11:46.937Z,503.00
2022-12-25T00:12:46.957Z,505.00
2022-12-25T00:13:46.914Z,507.00
2022-12-25T00:14:46.905Z,504.00
2022-12-25T00:15:46.917Z,506.00
2022-12-25T00:16:46.933Z,507.00
2022-12-25T00:17:46.845Z,509.00
2022-12-25T00:18:46.843Z,503.00
2022-12-25T00:19:46.841Z,501.00
2022-12-25T00:20:46.813Z,502.00
2022-12-25T00:21:46.808Z,504.00
2022-12-25T00:22:46.791Z,503.00
2022-12-25T00:23:46.770Z,508.00
2022-12-25T00:24:46.760Z,510.00
2022-12-25T00:25:46.754Z,507.00
2022-12-25T00:26:46.757Z,510.00
2022-12-25T00:27:46.746Z,506.00
2022-12-25T00:28:46.726Z,510.00
2022-12-25T00:29:46.716Z,509.00
2022-12-25T00:30:46.716Z,511.00
2022-12-25T00:31:46.715Z,509.00
2022-12-25T00:32:46.689Z,510.00
2022-12-25T00:33:46.665Z,503.00
2022-12-25T00:34:46.673Z,505.00
2022-12-25T00:35:46.673Z,504.00
2022-12-25T00:36:46.665Z,507.00
2022-12-25T00:37:46.645Z,506.00
2022-12-25T00:38:46.630Z,510.00
2022-12-25T00:39:46.628Z,506.00
2022-12-25T00:40:46.614Z,507.00
2022-12-25T00:41:46.611Z,505.00
2022-12-25T00:42:46.606Z,502.00
2022-12-25T00:43:46.599Z,504.00
2022-12-25T00:44:46.584Z,501.00
2022-12-25T00:45:46.640Z,506.00
2022-12-25T00:46:46.600Z,504.00
2022-12-25T00:47:46.548Z,505.00
2022-12-25T00:48:46.552Z,505.00
2022-12-25T00:49:46.543Z,505.00
2022-12-25T00:50:46.540Z,506.00
2022-12-25T00:51:46.514Z,508.00
2022-12-25T00:52:46.493Z,506.00
2022-12-25T00:53:46.491Z,506.00
2022-12-25T00:54:46.484Z,501.00
2022-12-25T00:55:46.478Z,505.00
2022-12-25T00:56:46.465Z,509.00
2022-12-25T00:57:46.469Z,508.00
2022-12-25T00:58:46.458Z,501.00
2022-12-25T00:59:46.437Z,510.00
2022-12-25T01:00:46.495Z,503.00
2022-12-25T01:01:46.547Z,506.00
2022-12-25T01:02:46.571Z,507.00
2022-12-25T01:03:46.438Z,503.00
2022-12-25T01:04:46.412Z,506.00
2022-12-25T01:05:46.410Z,504.00
2022-12-25T01:06:46.412Z,500.00
2022-12-25T01:07:46.397Z,505.00
2022-12-25T01:08:46.384Z,507.00
2022-12-25T01:09:46.373Z,509.00
2022-12-25T01:10:46.370Z,509.00
2022-12-25T01:11:46.362Z,506.00
2022-12-25T01:12:46.344Z,505.00
2022-12-25T01:13:46.339Z,504.00
2022-12-25T01:14:46.309Z,506.00
2022-12-25T01:15:46.311Z,504.00
2022-12-25T01:16:46.335Z,509.00
2022-12-25T01:17:46.281Z,510.00
2022-12-25T01:18:46.268Z,505.00
2022-12-25T01:19:46.247Z,510.00
2022-12-25T01:20:46.234Z,507.00
2022-12-25T01:21:46.222Z,508.00
2022-12-25T01:22:46.219Z,504.00
2022-12-25T01:23:46.187Z,505.00
2022-12-25T01:24:46.172Z,508.00
2022-12-25T01:25:46.186Z,505.00
2022-12-25T01:26:46.158Z,505.00
2022-12-25T01:27:46.152Z,505.00
2022-12-25T01:28:46.126Z,505.00
2022-12-25T01:29:46.115Z,500.00
2022-12-25T01:30:46.100Z,506.00
2022-12-25T01:31:46.149Z,502.00
2022-12-25T01:32:46.073Z,507.00
2022-12-25T01:33:46.081Z,508.00
2022-12-25T01:34:49.326Z,504.00
2022-12-25T01:36:46.023Z,505.00
2022-12-25T01:37:46.012Z,506.00
2022-12-25T01:38:46.032Z,506.00
2022-12-25T01:39:46.024Z,505.00
2022-12-25T01:40:45.987Z,508.00
2022-12-25T01:41:45.975Z,507.00
2022-12-25T01:42:45.974Z,510.00
2022-12-25T01:43:45.945Z,504.00
2022-12-25T01:44:45.955Z,506.00
2022-12-25T01:45:45.991Z,505.00
2022-12-25T01:46:45.917Z,503.00
2022-12-25T01:47:45.922Z,500.00
2022-12-25T01:48:45.903Z,506.00
2022-12-25T01:49:45.871Z,507.00
2022-12-25T01:50:45.856Z,502.00
2022-12-25T01:51:45.839Z,506.00
2022-12-25T01:52:45.825Z,504.00
2022-12-25T01:53:45.826Z,509.00
2022-12-25T01:54:45.824Z,506.00
2022-12-25T01:55:45.808Z,514.00
2022-12-25T01:56:45.812Z,503.00
2022-12-25T01:57:45.780Z,504.00
2022-12-25T01:58:45.773Z,503.00
2022-12-25T01:59:45.754Z,500.00
2022-12-25T02:00:45.776Z,506.00
2022-12-25T02:01:46.051Z,503.00
2022-12-25T02:02:45.840Z,502.00
2022-12-25T02:03:45.710Z,506.00
2022-12-25T02:05:45.674Z,503.00
2022-12-25T02:06:45.660Z,502.00
2022-12-25T02:17:45.564Z,507.00
2022-12-25T03:38:50.133Z,511.00
2022-12-25T03:39:50.194Z,502.00
2022-12-25T03:40:50.249Z,507.00
2022-12-25T03:41:50.304Z,509.00
2022-12-25T03:42:50.336Z,507.00
2022-12-25T03:43:50.397Z,508.00
2022-12-25T03:44:50.444Z,508.00
2022-12-25T03:45:50.517Z,512.00
2022-12-25T03:46:50.555Z,507.00
2022-12-25T03:47:50.592Z,511.00
2022-12-25T03:48:50.651Z,513.00
2022-12-25T03:49:50.699Z,508.00
2022-12-25T03:50:50.760Z,509.00
2022-12-25T03:51:50.811Z,510.00
2022-12-25T03:52:50.834Z,511.00
2022-12-25T03:53:50.906Z,505.00
2022-12-25T03:54:50.933Z,506.00
2022-12-25T03:55:50.979Z,511.00
2022-12-25T03:56:51.060Z,509.00
2022-12-25T03:57:51.217Z,510.00
2022-12-25T03:58:51.253Z,511.00
2022-12-25T03:59:51.238Z,510.00
2022-12-25T04:00:51.238Z,508.00
2022-12-25T04:01:51.376Z,510.00
2022-12-25T04:02:51.460Z,512.00
2022-12-25T04:03:51.389Z,504.00
2022-12-25T04:04:51.424Z,505.00
2022-12-25T04:05:51.447Z,503.00
2022-12-25T10:17:51.450Z,535.00
2022-12-25T10:18:51.360Z,538.00
2022-12-25T10:19:51.354Z,537.00
2022-12-25T10:20:51.294Z,535.00
2022-12-25T10:21:51.258Z,531.00
2022-12-25T10:22:51.242Z,539.00
2022-12-25T10:23:51.212Z,537.00
2022-12-25T10:24:51.175Z,538.00
2022-12-25T10:25:51.175Z,539.00
2022-12-25T10:26:51.125Z,539.00
2022-12-25T10:27:51.098Z,542.00
2022-12-25T10:28:51.075Z,541.00
2022-12-25T10:29:51.054Z,542.00
2022-12-25T10:30:51.039Z,545.00
2022-12-25T10:31:50.993Z,544.00
2022-12-25T10:32:50.959Z,548.00
2022-12-25T10:33:50.956Z,546.00
2022-12-25T10:34:50.921Z,545.00
2022-12-25T10:35:50.904Z,546.00
2022-12-25T10:36:50.914Z,547.00
2022-12-25T10:37:50.836Z,544.00
2022-12-25T10:38:50.815Z,547.00
2022-12-25T10:39:50.787Z,545.00
2022-12-25T10:40:50.748Z,548.00
2022-12-25T10:41:50.730Z,547.00
2022-12-25T10:42:50.700Z,546.00
2022-12-25T10:43:50.706Z,549.00
2022-12-25T10:44:50.647Z,546.00
2022-12-25T10:45:50.627Z,545.00
2022-12-25T10:46:50.654Z,548.00
2022-12-25T10:47:59.534Z,551.00
2022-12-25T10:48:51.550Z,552.00
2022-12-25T10:49:50.497Z,552.00
2022-12-25T10:50:50.458Z,552.00
2022-12-25T10:51:50.423Z,550.00
2022-12-25T10:52:50.400Z,552.00
2022-12-25T10:53:50.357Z,548.00
2022-12-25T10:54:50.322Z,552.00
2022-12-25T10:55:50.293Z,551.00
2022-12-25T10:56:50.264Z,551.00
2022-12-25T10:57:50.236Z,552.00
2022-12-25T10:58:50.210Z,552.00
2022-12-25T10:59:50.171Z,550.00
2022-12-25T11:00:50.129Z,548.00
2022-12-25T13:23:42.278Z,708.00
2022-12-25T13:25:42.098Z,775.00
2022-12-25T13:26:42.005Z,821.00
2022-12-25T13:27:41.902Z,822.00
2022-12-25T13:28:41.814Z,824.00
2022-12-25T13:30:41.669Z,843.00
2022-12-25T13:31:41.565Z,871.00
2022-12-25T13:32:41.420Z,850.00
2022-12-25T13:33:41.271Z,843.00
2022-12-25T13:34:41.180Z,801.00
2022-12-25T13:35:41.091Z,740.00
2022-12-25T13:36:40.967Z,665.00
2022-12-25T13:37:40.872Z,643.00
2022-12-25T13:38:40.784Z,615.00
2022-12-25T13:39:40.700Z,588.00
2022-12-25T13:40:40.629Z,565.00
2022-12-25T13:41:40.557Z,565.00
2022-12-25T13:42:40.489Z,546.00
2022-12-25T13:43:40.429Z,536.00
2022-12-25T13:44:40.399Z,524.00
2022-12-25T13:45:40.341Z,508.00
2022-12-25T13:46:40.274Z,505.00
2022-12-25T13:47:40.199Z,501.00
2022-12-25T13:48:40.136Z,500.00
2022-12-25T18:38:32.924Z,512.00
2022-12-25T18:44:32.829Z,509.00
2022-12-25T18:52:49.975Z,510.00
2022-12-25T22:28:40.124Z,513.00
2022-12-25T22:29:40.157Z,503.00
2022-12-25T22:30:40.394Z,506.00
2022-12-25T22:31:46.435Z,512.00
2022-12-25T22:32:41.230Z,512.00
2022-12-25T22:33:40.212Z,511.00
2022-12-25T22:34:40.189Z,510.00
2022-12-25T22:35:40.168Z,508.00
2022-12-25T22:36:40.165Z,507.00
2022-12-25T22:37:40.169Z,508.00
2022-12-25T22:38:40.121Z,502.00
2022-12-25T22:39:40.132Z,501.00
